sensor_id;sensor_type;location;lat;lon;timestamp;P1;durP1;ratioP1;P2;durP2;ratioP2
9160;SDS011;4615;51.340;8.288;2023-07-30T00:00:53;3.30;;;2.70;;
9160;SDS011;4615;51.340;8.288;2023-07-30T00:03:19;2.75;;;2.55;;
9160;SDS011;4615;51.340;8.288;2023-07-30T00:05:51;3.20;;;2.90;;
9160;SDS011;4615;51.340;8.288;2023-07-30T00:08:17;2.97;;;2.63;;
9160;SDS011;4615;51.340;8.288;2023-07-30T00:10:44;3.00;;;2.70;;
9160;SDS011;4615;51.340;8.288;2023-07-30T00:13:10;3.03;;;2.72;;
9160;SDS011;4615;51.340;8.288;2023-07-30T00:15:36;3.30;;;3.00;;
9160;SDS011;4615;51.340;8.288;2023-07-30T00:18:04;3.10;;;2.80;;
9160;SDS011;4615;51.340;8.288;2023-07-30T00:20:30;3.50;;;3.00;;
9160;SDS011;4615;51.340;8.288;2023-07-30T00:22:57;3.08;;;2.85;;
9160;SDS011;4615;51.340;8.288;2023-07-30T00:25:23;3.20;;;2.90;;
9160;SDS011;4615;51.340;8.288;2023-07-30T00:27:49;3.28;;;2.97;;
9160;SDS011;4615;51.340;8.288;2023-07-30T00:30:16;3.30;;;3.00;;
9160;SDS011;4615;51.340;8.288;2023-07-30T00:32:42;3.50;;;3.20;;
9160;SDS011;4615;51.340;8.288;2023-07-30T00:35:10;2.92;;;2.72;;
9160;SDS011;4615;51.340;8.288;2023-07-30T00:37:36;3.50;;;3.20;;
9160;SDS011;4615;51.340;8.288;2023-07-30T00:40:03;4.35;;;2.97;;
9160;SDS011;4615;51.340;8.288;2023-07-30T00:42:29;3.83;;;3.53;;
9160;SDS011;4615;51.340;8.288;2023-07-30T00:44:55;3.42;;;3.13;;
9160;SDS011;4615;51.340;8.288;2023-07-30T00:47:22;3.80;;;3.35;;
9160;SDS011;4615;51.340;8.288;2023-07-30T00:49:48;4.10;;;3.40;;
9160;SDS011;4615;51.340;8.288;2023-07-30T00:52:17;4.47;;;3.40;;
9160;SDS011;4615;51.340;8.288;2023-07-30T00:54:44;3.80;;;3.40;;
9160;SDS011;4615;51.340;8.288;2023-07-30T00:57:11;3.22;;;2.92;;
9160;SDS011;4615;51.340;8.288;2023-07-30T00:59:37;4.35;;;3.22;;
9160;SDS011;4615;51.340;8.288;2023-07-30T01:02:04;3.60;;;3.28;;
9160;SDS011;4615;51.340;8.288;2023-07-30T01:04:30;4.07;;;2.90;;
9160;SDS011;4615;51.340;8.288;2023-07-30T01:06:57;3.92;;;2.75;;
9160;SDS011;4615;51.340;8.288;2023-07-30T01:09:25;3.35;;;3.05;;
9160;SDS011;4615;51.340;8.288;2023-07-30T01:11:51;3.95;;;2.83;;
9160;SDS011;4615;51.340;8.288;2023-07-30T01:14:19;3.53;;;2.80;;
9160;SDS011;4615;51.340;8.288;2023-07-30T01:16:46;3.67;;;2.72;;
9160;SDS011;4615;51.340;8.288;2023-07-30T01:19:12;4.47;;;3.03;;
9160;SDS011;4615;51.340;8.288;2023-07-30T01:21:40;3.72;;;3.15;;
9160;SDS011;4615;51.340;8.288;2023-07-30T01:24:06;4.50;;;2.80;;
9160;SDS011;4615;51.340;8.288;2023-07-30T01:26:35;4.90;;;2.83;;
9160;SDS011;4615;51.340;8.288;2023-07-30T01:29:03;4.05;;;2.47;;
9160;SDS011;4615;51.340;8.288;2023-07-30T01:31:32;3.90;;;2.70;;
9160;SDS011;4615;51.340;8.288;2023-07-30T01:34:01;6.43;;;2.90;;
9160;SDS011;4615;51.340;8.288;2023-07-30T01:36:28;3.85;;;2.72;;
9160;SDS011;4615;51.340;8.288;2023-07-30T01:38:56;3.75;;;2.80;;
9160;SDS011;4615;51.340;8.288;2023-07-30T01:41:23;4.63;;;2.83;;
9160;SDS011;4615;51.340;8.288;2023-07-30T01:43:50;3.28;;;2.60;;
9160;SDS011;4615;51.340;8.288;2023-07-30T01:46:16;6.80;;;2.95;;
9160;SDS011;4615;51.340;8.288;2023-07-30T01:48:43;3.88;;;2.65;;
9160;SDS011;4615;51.340;8.288;2023-07-30T01:51:09;4.38;;;2.75;;
9160;SDS011;4615;51.340;8.288;2023-07-30T01:53:35;4.57;;;2.95;;
9160;SDS011;4615;51.340;8.288;2023-07-30T01:56:03;4.30;;;3.40;;
9160;SDS011;4615;51.340;8.288;2023-07-30T01:58:30;4.05;;;3.20;;
9160;SDS011;4615;51.340;8.288;2023-07-30T02:00:55;3.57;;;3.10;;
9160;SDS011;4615;51.340;8.288;2023-07-30T02:03:21;4.93;;;3.50;;
9160;SDS011;4615;51.340;8.288;2023-07-30T02:05:48;4.75;;;3.33;;
9160;SDS011;4615;51.340;8.288;2023-07-30T02:08:14;4.47;;;3.65;;
9160;SDS011;4615;51.340;8.288;2023-07-30T02:10:41;4.45;;;3.50;;
9160;SDS011;4615;51.340;8.288;2023-07-30T02:13:08;4.20;;;3.40;;
9160;SDS011;4615;51.340;8.288;2023-07-30T02:15:39;7.40;;;3.35;;
9160;SDS011;4615;51.340;8.288;2023-07-30T02:18:05;5.72;;;3.13;;
9160;SDS011;4615;51.340;8.288;2023-07-30T02:20:31;4.47;;;3.30;;
9160;SDS011;4615;51.340;8.288;2023-07-30T02:22:58;3.67;;;2.90;;
9160;SDS011;4615;51.340;8.288;2023-07-30T02:25:24;4.45;;;3.15;;
9160;SDS011;4615;51.340;8.288;2023-07-30T02:27:50;4.95;;;3.08;;
9160;SDS011;4615;51.340;8.288;2023-07-30T02:30:18;5.68;;;3.35;;
9160;SDS011;4615;51.340;8.288;2023-07-30T02:32:44;4.70;;;2.88;;
9160;SDS011;4615;51.340;8.288;2023-07-30T02:35:11;4.95;;;3.05;;
9160;SDS011;4615;51.340;8.288;2023-07-30T02:37:37;5.60;;;2.90;;
9160;SDS011;4615;51.340;8.288;2023-07-30T02:40:04;5.00;;;3.17;;
9160;SDS011;4615;51.340;8.288;2023-07-30T02:42:30;4.78;;;2.78;;
9160;SDS011;4615;51.340;8.288;2023-07-30T02:44:57;4.45;;;3.25;;
9160;SDS011;4615;51.340;8.288;2023-07-30T02:47:24;6.03;;;3.33;;
9160;SDS011;4615;51.340;8.288;2023-07-30T02:49:51;4.80;;;3.17;;
9160;SDS011;4615;51.340;8.288;2023-07-30T02:52:17;5.03;;;3.10;;
9160;SDS011;4615;51.340;8.288;2023-07-30T02:54:43;3.90;;;3.42;;
9160;SDS011;4615;51.340;8.288;2023-07-30T02:57:10;5.47;;;3.42;;
9160;SDS011;4615;51.340;8.288;2023-07-30T02:59:37;4.43;;;3.47;;
9160;SDS011;4615;51.340;8.288;2023-07-30T03:02:05;4.00;;;3.00;;
9160;SDS011;4615;51.340;8.288;2023-07-30T03:04:33;4.55;;;3.30;;
9160;SDS011;4615;51.340;8.288;2023-07-30T03:06:59;4.50;;;3.25;;
9160;SDS011;4615;51.340;8.288;2023-07-30T03:09:26;4.90;;;3.53;;
9160;SDS011;4615;51.340;8.288;2023-07-30T03:11:53;5.07;;;3.38;;
9160;SDS011;4615;51.340;8.288;2023-07-30T03:14:19;6.50;;;3.40;;
9160;SDS011;4615;51.340;8.288;2023-07-30T03:16:46;5.13;;;2.92;;
9160;SDS011;4615;51.340;8.288;2023-07-30T03:19:12;4.18;;;3.28;;
9160;SDS011;4615;51.340;8.288;2023-07-30T03:21:40;5.53;;;3.38;;
9160;SDS011;4615;51.340;8.288;2023-07-30T03:24:06;4.88;;;3.60;;
9160;SDS011;4615;51.340;8.288;2023-07-30T03:26:33;4.03;;;3.40;;
9160;SDS011;4615;51.340;8.288;2023-07-30T03:28:59;5.45;;;3.28;;
9160;SDS011;4615;51.340;8.288;2023-07-30T03:31:25;5.80;;;3.45;;
9160;SDS011;4615;51.340;8.288;2023-07-30T03:33:53;4.28;;;3.30;;
9160;SDS011;4615;51.340;8.288;2023-07-30T03:36:19;5.47;;;3.28;;
9160;SDS011;4615;51.340;8.288;2023-07-30T03:38:47;7.13;;;3.53;;
9160;SDS011;4615;51.340;8.288;2023-07-30T03:41:13;4.83;;;3.80;;
9160;SDS011;4615;51.340;8.288;2023-07-30T03:43:40;5.80;;;4.00;;
9160;SDS011;4615;51.340;8.288;2023-07-30T03:46:06;4.40;;;3.97;;
9160;SDS011;4615;51.340;8.288;2023-07-30T03:48:32;5.53;;;4.50;;
9160;SDS011;4615;51.340;8.288;2023-07-30T03:50:59;7.65;;;4.35;;
9160;SDS011;4615;51.340;8.288;2023-07-30T03:53:25;4.63;;;4.07;;
9160;SDS011;4615;51.340;8.288;2023-07-30T03:55:53;7.10;;;4.57;;
9160;SDS011;4615;51.340;8.288;2023-07-30T03:58:19;6.47;;;4.30;;
9160;SDS011;4615;51.340;8.288;2023-07-30T04:00:46;5.70;;;4.43;;
9160;SDS011;4615;51.340;8.288;2023-07-30T04:03:12;5.60;;;4.10;;
9160;SDS011;4615;51.340;8.288;2023-07-30T04:05:38;4.97;;;4.20;;
9160;SDS011;4615;51.340;8.288;2023-07-30T04:08:05;5.88;;;4.35;;
9160;SDS011;4615;51.340;8.288;2023-07-30T04:10:31;5.50;;;4.70;;
9160;SDS011;4615;51.340;8.288;2023-07-30T04:12:59;5.30;;;4.40;;
9160;SDS011;4615;51.340;8.288;2023-07-30T04:15:25;5.30;;;4.80;;
9160;SDS011;4615;51.340;8.288;2023-07-30T04:17:52;5.53;;;4.65;;
9160;SDS011;4615;51.340;8.288;2023-07-30T04:20:18;6.18;;;4.55;;
9160;SDS011;4615;51.340;8.288;2023-07-30T04:22:44;5.57;;;4.53;;
9160;SDS011;4615;51.340;8.288;2023-07-30T04:25:11;5.88;;;4.40;;
9160;SDS011;4615;51.340;8.288;2023-07-30T04:27:37;7.07;;;4.60;;
9160;SDS011;4615;51.340;8.288;2023-07-30T04:30:05;6.13;;;4.35;;
9160;SDS011;4615;51.340;8.288;2023-07-30T04:32:32;5.82;;;4.30;;
9160;SDS011;4615;51.340;8.288;2023-07-30T04:34:59;4.78;;;4.25;;
9160;SDS011;4615;51.340;8.288;2023-07-30T04:37:26;6.18;;;4.22;;
9160;SDS011;4615;51.340;8.288;2023-07-30T04:39:52;6.03;;;4.25;;
9160;SDS011;4615;51.340;8.288;2023-07-30T04:42:18;5.35;;;4.00;;
9160;SDS011;4615;51.340;8.288;2023-07-30T04:44:45;5.87;;;4.10;;
9160;SDS011;4615;51.340;8.288;2023-07-30T04:47:12;5.57;;;4.40;;
9160;SDS011;4615;51.340;8.288;2023-07-30T04:49:39;6.05;;;4.13;;
9160;SDS011;4615;51.340;8.288;2023-07-30T04:52:05;4.65;;;4.05;;
9160;SDS011;4615;51.340;8.288;2023-07-30T04:54:32;6.18;;;4.20;;
9160;SDS011;4615;51.340;8.288;2023-07-30T04:56:58;5.47;;;3.90;;
9160;SDS011;4615;51.340;8.288;2023-07-30T04:59:25;6.55;;;4.20;;
9160;SDS011;4615;51.340;8.288;2023-07-30T05:01:51;6.47;;;4.50;;
9160;SDS011;4615;51.340;8.288;2023-07-30T05:04:19;4.68;;;4.10;;
9160;SDS011;4615;51.340;8.288;2023-07-30T05:06:45;5.72;;;4.43;;
9160;SDS011;4615;51.340;8.288;2023-07-30T05:09:12;6.00;;;4.10;;
9160;SDS011;4615;51.340;8.288;2023-07-30T05:11:38;4.70;;;4.10;;
9160;SDS011;4615;51.340;8.288;2023-07-30T05:14:04;8.20;;;4.50;;
9160;SDS011;4615;51.340;8.288;2023-07-30T05:16:31;5.37;;;4.30;;
9160;SDS011;4615;51.340;8.288;2023-07-30T05:18:57;7.03;;;4.38;;
9160;SDS011;4615;51.340;8.288;2023-07-30T05:21:25;5.93;;;4.20;;
9160;SDS011;4615;51.340;8.288;2023-07-30T05:23:51;6.28;;;4.40;;
9160;SDS011;4615;51.340;8.288;2023-07-30T05:26:17;5.82;;;4.38;;
9160;SDS011;4615;51.340;8.288;2023-07-30T05:28:44;7.15;;;4.40;;
9160;SDS011;4615;51.340;8.288;2023-07-30T05:31:10;6.47;;;4.35;;
9160;SDS011;4615;51.340;8.288;2023-07-30T05:33:36;6.30;;;4.30;;
9160;SDS011;4615;51.340;8.288;2023-07-30T05:36:03;6.57;;;4.50;;
9160;SDS011;4615;51.340;8.288;2023-07-30T05:38:32;5.78;;;4.25;;
9160;SDS011;4615;51.340;8.288;2023-07-30T05:40:58;6.00;;;4.10;;
9160;SDS011;4615;51.340;8.288;2023-07-30T05:43:25;4.57;;;4.10;;
9160;SDS011;4615;51.340;8.288;2023-07-30T05:45:51;4.70;;;3.90;;
9160;SDS011;4615;51.340;8.288;2023-07-30T05:48:17;4.10;;;3.70;;
9160;SDS011;4615;51.340;8.288;2023-07-30T05:50:44;4.70;;;3.67;;
9160;SDS011;4615;51.340;8.288;2023-07-30T05:53:10;6.47;;;3.80;;
9160;SDS011;4615;51.340;8.288;2023-07-30T05:55:38;4.45;;;3.40;;
9160;SDS011;4615;51.340;8.288;2023-07-30T05:58:04;5.35;;;3.55;;
9160;SDS011;4615;51.340;8.288;2023-07-30T06:00:30;4.25;;;3.35;;
9160;SDS011;4615;51.340;8.288;2023-07-30T06:02:57;4.97;;;3.50;;
9160;SDS011;4615;51.340;8.288;2023-07-30T06:05:23;4.47;;;3.88;;
9160;SDS011;4615;51.340;8.288;2023-07-30T06:07:50;5.63;;;3.95;;
9160;SDS011;4615;51.340;8.288;2023-07-30T06:10:16;6.20;;;3.80;;
9160;SDS011;4615;51.340;8.288;2023-07-30T06:12:44;5.70;;;3.92;;
9160;SDS011;4615;51.340;8.288;2023-07-30T06:15:10;5.25;;;2.88;;
9160;SDS011;4615;51.340;8.288;2023-07-30T06:17:36;4.03;;;2.90;;
9160;SDS011;4615;51.340;8.288;2023-07-30T06:20:03;4.63;;;3.20;;
9160;SDS011;4615;51.340;8.288;2023-07-30T06:22:30;4.72;;;2.85;;
9160;SDS011;4615;51.340;8.288;2023-07-30T06:24:56;2.72;;;2.30;;
9160;SDS011;4615;51.340;8.288;2023-07-30T06:27:23;4.25;;;2.35;;
9160;SDS011;4615;51.340;8.288;2023-07-30T06:29:51;3.42;;;2.30;;
9160;SDS011;4615;51.340;8.288;2023-07-30T06:32:17;5.10;;;2.27;;
9160;SDS011;4615;51.340;8.288;2023-07-30T06:34:44;3.17;;;2.05;;
9160;SDS011;4615;51.340;8.288;2023-07-30T06:37:10;3.28;;;1.95;;
9160;SDS011;4615;51.340;8.288;2023-07-30T06:39:36;4.72;;;2.38;;
9160;SDS011;4615;51.340;8.288;2023-07-30T06:42:03;5.63;;;2.50;;
9160;SDS011;4615;51.340;8.288;2023-07-30T06:44:29;4.07;;;2.38;;
9160;SDS011;4615;51.340;8.288;2023-07-30T06:46:57;3.15;;;2.20;;
9160;SDS011;4615;51.340;8.288;2023-07-30T06:49:23;4.10;;;2.50;;
9160;SDS011;4615;51.340;8.288;2023-07-30T06:51:50;4.45;;;2.40;;
9160;SDS011;4615;51.340;8.288;2023-07-30T06:54:16;3.40;;;2.30;;
9160;SDS011;4615;51.340;8.288;2023-07-30T06:56:42;4.03;;;2.40;;
9160;SDS011;4615;51.340;8.288;2023-07-30T06:59:09;2.93;;;2.20;;
9160;SDS011;4615;51.340;8.288;2023-07-30T07:01:35;3.92;;;2.35;;
9160;SDS011;4615;51.340;8.288;2023-07-30T07:04:03;5.03;;;2.40;;
9160;SDS011;4615;51.340;8.288;2023-07-30T07:06:29;4.85;;;2.22;;
9160;SDS011;4615;51.340;8.288;2023-07-30T07:08:55;4.73;;;2.60;;
9160;SDS011;4615;51.340;8.288;2023-07-30T07:11:23;5.03;;;2.40;;
9160;SDS011;4615;51.340;8.288;2023-07-30T07:13:49;3.50;;;2.30;;
9160;SDS011;4615;51.340;8.288;2023-07-30T07:16:15;5.70;;;2.50;;
9160;SDS011;4615;51.340;8.288;2023-07-30T07:18:42;5.55;;;2.70;;
9160;SDS011;4615;51.340;8.288;2023-07-30T07:21:09;5.32;;;2.70;;
9160;SDS011;4615;51.340;8.288;2023-07-30T07:23:36;4.95;;;2.30;;
9160;SDS011;4615;51.340;8.288;2023-07-30T07:26:02;4.95;;;2.22;;
9160;SDS011;4615;51.340;8.288;2023-07-30T07:28:29;3.78;;;1.98;;
9160;SDS011;4615;51.340;8.288;2023-07-30T07:30:55;4.15;;;2.03;;
9160;SDS011;4615;51.340;8.288;2023-07-30T07:33:21;4.18;;;2.00;;
9160;SDS011;4615;51.340;8.288;2023-07-30T07:35:48;4.30;;;2.10;;
9160;SDS011;4615;51.340;8.288;2023-07-30T07:38:16;4.55;;;2.15;;
9160;SDS011;4615;51.340;8.288;2023-07-30T07:40:42;3.38;;;1.80;;
9160;SDS011;4615;51.340;8.288;2023-07-30T07:43:09;3.97;;;1.90;;
9160;SDS011;4615;51.340;8.288;2023-07-30T07:45:36;3.93;;;1.87;;
9160;SDS011;4615;51.340;8.288;2023-07-30T07:48:02;4.75;;;2.13;;
9160;SDS011;4615;51.340;8.288;2023-07-30T07:50:28;5.45;;;2.00;;
9160;SDS011;4615;51.340;8.288;2023-07-30T07:52:55;4.95;;;2.05;;
9160;SDS011;4615;51.340;8.288;2023-07-30T07:55:22;4.10;;;2.20;;
9160;SDS011;4615;51.340;8.288;2023-07-30T07:57:49;3.35;;;1.90;;
9160;SDS011;4615;51.340;8.288;2023-07-30T08:00:17;4.22;;;2.08;;
9160;SDS011;4615;51.340;8.288;2023-07-30T08:02:43;4.57;;;2.10;;
9160;SDS011;4615;51.340;8.288;2023-07-30T08:05:09;3.92;;;1.80;;
9160;SDS011;4615;51.340;8.288;2023-07-30T08:07:36;3.97;;;1.92;;
9160;SDS011;4615;51.340;8.288;2023-07-30T08:10:02;3.60;;;2.00;;
9160;SDS011;4615;51.340;8.288;2023-07-30T08:12:32;5.47;;;2.30;;
9160;SDS011;4615;51.340;8.288;2023-07-30T08:14:58;4.35;;;2.00;;
9160;SDS011;4615;51.340;8.288;2023-07-30T08:17:25;4.47;;;2.20;;
9160;SDS011;4615;51.340;8.288;2023-07-30T08:19:51;5.80;;;2.50;;
9160;SDS011;4615;51.340;8.288;2023-07-30T08:22:18;6.55;;;2.42;;
9160;SDS011;4615;51.340;8.288;2023-07-30T08:24:44;4.30;;;2.23;;
9160;SDS011;4615;51.340;8.288;2023-07-30T08:27:10;4.10;;;2.45;;
9160;SDS011;4615;51.340;8.288;2023-07-30T08:29:38;4.30;;;2.13;;
9160;SDS011;4615;51.340;8.288;2023-07-30T08:32:05;3.83;;;2.30;;
9160;SDS011;4615;51.340;8.288;2023-07-30T08:34:31;4.03;;;2.20;;
9160;SDS011;4615;51.340;8.288;2023-07-30T08:36:58;4.68;;;2.40;;
9160;SDS011;4615;51.340;8.288;2023-07-30T08:39:24;4.47;;;2.40;;
9160;SDS011;4615;51.340;8.288;2023-07-30T08:41:50;4.10;;;2.60;;
9160;SDS011;4615;51.340;8.288;2023-07-30T08:44:17;4.30;;;2.40;;
9160;SDS011;4615;51.340;8.288;2023-07-30T08:46:45;4.80;;;2.50;;
9160;SDS011;4615;51.340;8.288;2023-07-30T08:49:11;3.65;;;2.25;;
9160;SDS011;4615;51.340;8.288;2023-07-30T08:51:37;3.40;;;2.10;;
9160;SDS011;4615;51.340;8.288;2023-07-30T08:54:05;3.20;;;2.00;;
9160;SDS011;4615;51.340;8.288;2023-07-30T08:56:31;3.40;;;2.05;;
9160;SDS011;4615;51.340;8.288;2023-07-30T08:58:58;3.22;;;1.90;;
9160;SDS011;4615;51.340;8.288;2023-07-30T09:01:24;4.32;;;2.15;;
9160;SDS011;4615;51.340;8.288;2023-07-30T09:03:54;2.65;;;2.00;;
9160;SDS011;4615;51.340;8.288;2023-07-30T09:06:20;4.68;;;2.20;;
9160;SDS011;4615;51.340;8.288;2023-07-30T09:08:47;3.03;;;1.80;;
9160;SDS011;4615;51.340;8.288;2023-07-30T09:11:14;2.60;;;1.77;;
9160;SDS011;4615;51.340;8.288;2023-07-30T09:13:40;3.38;;;2.10;;
9160;SDS011;4615;51.340;8.288;2023-07-30T09:16:10;3.20;;;2.00;;
9160;SDS011;4615;51.340;8.288;2023-07-30T09:18:40;3.45;;;1.92;;
9160;SDS011;4615;51.340;8.288;2023-07-30T09:21:08;3.15;;;1.90;;
9160;SDS011;4615;51.340;8.288;2023-07-30T09:23:39;5.22;;;2.03;;
9160;SDS011;4615;51.340;8.288;2023-07-30T09:26:05;3.38;;;2.10;;
9160;SDS011;4615;51.340;8.288;2023-07-30T09:28:31;3.97;;;2.22;;
9160;SDS011;4615;51.340;8.288;2023-07-30T09:30:59;3.78;;;2.00;;
9160;SDS011;4615;51.340;8.288;2023-07-30T09:33:25;3.88;;;2.00;;
9160;SDS011;4615;51.340;8.288;2023-07-30T09:35:52;3.35;;;2.13;;
9160;SDS011;4615;51.340;8.288;2023-07-30T09:38:20;5.50;;;2.28;;
9160;SDS011;4615;51.340;8.288;2023-07-30T09:40:46;3.53;;;2.20;;
9160;SDS011;4615;51.340;8.288;2023-07-30T09:43:14;3.60;;;2.17;;
9160;SDS011;4615;51.340;8.288;2023-07-30T09:45:43;4.13;;;2.20;;
9160;SDS011;4615;51.340;8.288;2023-07-30T09:48:10;4.63;;;2.42;;
9160;SDS011;4615;51.340;8.288;2023-07-30T09:50:37;3.28;;;2.40;;
9160;SDS011;4615;51.340;8.288;2023-07-30T09:53:03;4.80;;;2.90;;
9160;SDS011;4615;51.340;8.288;2023-07-30T09:55:31;5.22;;;2.80;;
9160;SDS011;4615;51.340;8.288;2023-07-30T09:57:58;5.32;;;2.90;;
9160;SDS011;4615;51.340;8.288;2023-07-30T10:00:24;6.15;;;3.30;;
9160;SDS011;4615;51.340;8.288;2023-07-30T10:02:51;5.30;;;3.50;;
9160;SDS011;4615;51.340;8.288;2023-07-30T10:05:18;5.53;;;3.80;;
9160;SDS011;4615;51.340;8.288;2023-07-30T10:07:47;5.57;;;3.90;;
9160;SDS011;4615;51.340;8.288;2023-07-30T10:10:15;5.87;;;4.07;;
9160;SDS011;4615;51.340;8.288;2023-07-30T10:12:42;6.45;;;4.40;;
9160;SDS011;4615;51.340;8.288;2023-07-30T10:15:09;6.47;;;4.25;;
9160;SDS011;4615;51.340;8.288;2023-07-30T10:17:36;6.07;;;4.05;;
9160;SDS011;4615;51.340;8.288;2023-07-30T10:20:17;4.70;;;3.77;;
9160;SDS011;4615;51.340;8.288;2023-07-30T10:22:45;5.72;;;4.28;;
9160;SDS011;4615;51.340;8.288;2023-07-30T10:25:12;5.57;;;4.25;;
9160;SDS011;4615;51.340;8.288;2023-07-30T10:27:39;6.75;;;4.18;;
9160;SDS011;4615;51.340;8.288;2023-07-30T10:30:10;5.50;;;4.10;;
9160;SDS011;4615;51.340;8.288;2023-07-30T10:32:40;5.50;;;3.95;;
9160;SDS011;4615;51.340;8.288;2023-07-30T10:35:07;5.32;;;3.50;;
9160;SDS011;4615;51.340;8.288;2023-07-30T10:37:33;5.68;;;3.83;;
9160;SDS011;4615;51.340;8.288;2023-07-30T10:40:00;6.32;;;3.63;;
9160;SDS011;4615;51.340;8.288;2023-07-30T10:42:32;5.45;;;3.67;;
9160;SDS011;4615;51.340;8.288;2023-07-30T10:44:59;5.47;;;3.47;;
9160;SDS011;4615;51.340;8.288;2023-07-30T10:47:27;6.68;;;3.70;;
9160;SDS011;4615;51.340;8.288;2023-07-30T10:49:54;4.90;;;3.00;;
9160;SDS011;4615;51.340;8.288;2023-07-30T10:52:23;5.07;;;2.80;;
9160;SDS011;4615;51.340;8.288;2023-07-30T10:55:00;6.43;;;2.83;;
9160;SDS011;4615;51.340;8.288;2023-07-30T10:57:29;5.88;;;2.60;;
9160;SDS011;4615;51.340;8.288;2023-07-30T10:59:56;4.80;;;2.38;;
9160;SDS011;4615;51.340;8.288;2023-07-30T11:02:22;5.07;;;2.65;;
9160;SDS011;4615;51.340;8.288;2023-07-30T11:04:49;5.07;;;2.60;;
9160;SDS011;4615;51.340;8.288;2023-07-30T11:07:16;5.97;;;2.22;;
9160;SDS011;4615;51.340;8.288;2023-07-30T11:09:42;4.38;;;2.28;;
9160;SDS011;4615;51.340;8.288;2023-07-30T11:12:10;5.47;;;2.30;;
9160;SDS011;4615;51.340;8.288;2023-07-30T11:14:37;4.73;;;2.40;;
9160;SDS011;4615;51.340;8.288;2023-07-30T11:17:03;3.88;;;2.33;;
9160;SDS011;4615;51.340;8.288;2023-07-30T11:19:29;5.30;;;2.47;;
9160;SDS011;4615;51.340;8.288;2023-07-30T11:21:59;5.33;;;2.13;;
9160;SDS011;4615;51.340;8.288;2023-07-30T11:24:33;6.32;;;2.20;;
9160;SDS011;4615;51.340;8.288;2023-07-30T11:26:59;4.45;;;2.30;;
9160;SDS011;4615;51.340;8.288;2023-07-30T11:29:27;4.72;;;2.30;;
9160;SDS011;4615;51.340;8.288;2023-07-30T11:31:56;5.28;;;2.20;;
9160;SDS011;4615;51.340;8.288;2023-07-30T11:34:22;5.88;;;2.42;;
9160;SDS011;4615;51.340;8.288;2023-07-30T11:36:49;4.72;;;2.05;;
9160;SDS011;4615;51.340;8.288;2023-07-30T11:39:16;7.35;;;2.42;;
9160;SDS011;4615;51.340;8.288;2023-07-30T11:41:42;5.10;;;2.28;;
9160;SDS011;4615;51.340;8.288;2023-07-30T11:44:09;5.47;;;2.30;;
9160;SDS011;4615;51.340;8.288;2023-07-30T11:46:56;4.87;;;2.17;;
9160;SDS011;4615;51.340;8.288;2023-07-30T11:49:22;5.35;;;2.50;;
9160;SDS011;4615;51.340;8.288;2023-07-30T11:51:49;4.28;;;2.25;;
9160;SDS011;4615;51.340;8.288;2023-07-30T11:54:19;5.55;;;2.42;;
9160;SDS011;4615;51.340;8.288;2023-07-30T11:56:45;3.83;;;2.07;;
9160;SDS011;4615;51.340;8.288;2023-07-30T11:59:12;7.90;;;2.20;;
9160;SDS011;4615;51.340;8.288;2023-07-30T12:01:38;6.50;;;2.38;;
9160;SDS011;4615;51.340;8.288;2023-07-30T12:04:06;6.30;;;2.10;;
9160;SDS011;4615;51.340;8.288;2023-07-30T12:06:38;4.03;;;2.00;;
9160;SDS011;4615;51.340;8.288;2023-07-30T12:09:09;5.05;;;2.30;;
9160;SDS011;4615;51.340;8.288;2023-07-30T12:11:35;4.82;;;2.10;;
9160;SDS011;4615;51.340;8.288;2023-07-30T12:14:09;4.20;;;2.10;;
9160;SDS011;4615;51.340;8.288;2023-07-30T12:16:36;4.38;;;2.05;;
9160;SDS011;4615;51.340;8.288;2023-07-30T12:19:02;3.97;;;1.98;;
9160;SDS011;4615;51.340;8.288;2023-07-30T12:21:30;3.37;;;2.00;;
9160;SDS011;4615;51.340;8.288;2023-07-30T12:23:56;5.32;;;2.00;;
9160;SDS011;4615;51.340;8.288;2023-07-30T12:26:23;3.67;;;2.10;;
9160;SDS011;4615;51.340;8.288;2023-07-30T12:28:49;3.53;;;1.88;;
9160;SDS011;4615;51.340;8.288;2023-07-30T12:31:15;3.55;;;1.85;;
9160;SDS011;4615;51.340;8.288;2023-07-30T12:33:43;4.20;;;2.00;;
9160;SDS011;4615;51.340;8.288;2023-07-30T12:36:09;3.95;;;1.80;;
9160;SDS011;4615;51.340;8.288;2023-07-30T12:38:37;5.22;;;2.10;;
9160;SDS011;4615;51.340;8.288;2023-07-30T12:41:03;4.78;;;2.17;;
9160;SDS011;4615;51.340;8.288;2023-07-30T12:43:29;3.00;;;1.75;;
9160;SDS011;4615;51.340;8.288;2023-07-30T12:45:56;4.00;;;1.87;;
9160;SDS011;4615;51.340;8.288;2023-07-30T12:48:22;4.43;;;1.92;;
9160;SDS011;4615;51.340;8.288;2023-07-30T12:50:49;3.30;;;1.70;;
9160;SDS011;4615;51.340;8.288;2023-07-30T12:53:15;3.43;;;1.70;;
9160;SDS011;4615;51.340;8.288;2023-07-30T12:55:43;3.70;;;1.70;;
9160;SDS011;4615;51.340;8.288;2023-07-30T12:58:09;5.50;;;1.90;;
9160;SDS011;4615;51.340;8.288;2023-07-30T13:00:35;3.05;;;1.70;;
9160;SDS011;4615;51.340;8.288;2023-07-30T13:03:02;3.10;;;1.50;;
9160;SDS011;4615;51.340;8.288;2023-07-30T13:05:28;4.07;;;1.87;;
9160;SDS011;4615;51.340;8.288;2023-07-30T13:07:54;5.18;;;1.80;;
9160;SDS011;4615;51.340;8.288;2023-07-30T13:10:21;5.05;;;2.10;;
9160;SDS011;4615;51.340;8.288;2023-07-30T13:12:48;4.90;;;1.90;;
9160;SDS011;4615;51.340;8.288;2023-07-30T13:15:15;5.10;;;2.10;;
9160;SDS011;4615;51.340;8.288;2023-07-30T13:17:41;3.83;;;1.93;;
9160;SDS011;4615;51.340;8.288;2023-07-30T13:20:08;3.95;;;1.90;;
9160;SDS011;4615;51.340;8.288;2023-07-30T13:22:53;4.80;;;1.85;;
9160;SDS011;4615;51.340;8.288;2023-07-30T13:25:19;4.23;;;1.93;;
9160;SDS011;4615;51.340;8.288;2023-07-30T13:27:46;5.75;;;1.98;;
9160;SDS011;4615;51.340;8.288;2023-07-30T13:30:13;3.72;;;1.90;;
9160;SDS011;4615;51.340;8.288;2023-07-30T13:32:40;4.30;;;1.83;;
9160;SDS011;4615;51.340;8.288;2023-07-30T13:35:07;3.38;;;1.83;;
9160;SDS011;4615;51.340;8.288;2023-07-30T13:37:33;3.60;;;1.70;;
9160;SDS011;4615;51.340;8.288;2023-07-30T13:39:59;5.03;;;2.05;;
9160;SDS011;4615;51.340;8.288;2023-07-30T13:42:26;4.20;;;1.85;;
9160;SDS011;4615;51.340;8.288;2023-07-30T13:44:52;3.85;;;1.70;;
9160;SDS011;4615;51.340;8.288;2023-07-30T13:47:20;3.35;;;1.67;;
9160;SDS011;4615;51.340;8.288;2023-07-30T13:49:46;3.20;;;1.70;;
9160;SDS011;4615;51.340;8.288;2023-07-30T13:52:13;4.47;;;1.87;;
9160;SDS011;4615;51.340;8.288;2023-07-30T13:54:39;4.53;;;1.70;;
9160;SDS011;4615;51.340;8.288;2023-07-30T13:57:06;4.55;;;1.83;;
9160;SDS011;4615;51.340;8.288;2023-07-30T13:59:34;4.27;;;1.80;;
9160;SDS011;4615;51.340;8.288;2023-07-30T14:02:00;5.80;;;2.30;;
9160;SDS011;4615;51.340;8.288;2023-07-30T14:04:28;4.87;;;1.90;;
9160;SDS011;4615;51.340;8.288;2023-07-30T14:06:54;3.13;;;1.80;;
9160;SDS011;4615;51.340;8.288;2023-07-30T14:09:21;3.07;;;1.60;;
9160;SDS011;4615;51.340;8.288;2023-07-30T14:11:49;4.88;;;1.98;;
9160;SDS011;4615;51.340;8.288;2023-07-30T14:14:16;6.70;;;2.03;;
9160;SDS011;4615;51.340;8.288;2023-07-30T14:16:42;3.97;;;1.60;;
9160;SDS011;4615;51.340;8.288;2023-07-30T14:19:08;5.68;;;1.85;;
9160;SDS011;4615;51.340;8.288;2023-07-30T14:21:36;3.58;;;1.70;;
9160;SDS011;4615;51.340;8.288;2023-07-30T14:24:02;3.33;;;1.58;;
9160;SDS011;4615;51.340;8.288;2023-07-30T14:26:29;3.10;;;1.63;;
9160;SDS011;4615;51.340;8.288;2023-07-30T14:28:55;4.07;;;1.83;;
9160;SDS011;4615;51.340;8.288;2023-07-30T14:31:21;4.78;;;1.80;;
9160;SDS011;4615;51.340;8.288;2023-07-30T14:33:48;4.32;;;1.70;;
9160;SDS011;4615;51.340;8.288;2023-07-30T14:36:14;3.60;;;1.70;;
9160;SDS011;4615;51.340;8.288;2023-07-30T14:38:42;4.50;;;1.90;;
9160;SDS011;4615;51.340;8.288;2023-07-30T14:41:08;3.50;;;1.52;;
9160;SDS011;4615;51.340;8.288;2023-07-30T14:43:36;3.95;;;1.80;;
9160;SDS011;4615;51.340;8.288;2023-07-30T14:46:02;4.03;;;1.63;;
9160;SDS011;4615;51.340;8.288;2023-07-30T14:48:28;3.65;;;1.65;;
9160;SDS011;4615;51.340;8.288;2023-07-30T14:50:55;3.42;;;1.60;;
9160;SDS011;4615;51.340;8.288;2023-07-30T14:53:21;4.47;;;1.60;;
9160;SDS011;4615;51.340;8.288;2023-07-30T14:55:49;3.50;;;1.77;;
9160;SDS011;4615;51.340;8.288;2023-07-30T14:58:15;3.80;;;1.75;;
9160;SDS011;4615;51.340;8.288;2023-07-30T15:01:40;2.65;;;1.50;;
9160;SDS011;4615;51.340;8.288;2023-07-30T15:04:06;3.72;;;1.60;;
9160;SDS011;4615;51.340;8.288;2023-07-30T15:06:33;3.97;;;1.80;;
9160;SDS011;4615;51.340;8.288;2023-07-30T15:08:59;4.70;;;2.10;;
9160;SDS011;4615;51.340;8.288;2023-07-30T15:11:26;2.90;;;1.63;;
9160;SDS011;4615;51.340;8.288;2023-07-30T15:13:53;4.80;;;2.22;;